Main page
METAR-TAF:

METAR-TAF

Airports :

Juneau International Airport

Juneau, Alaska, United States

latitude: 58-21-17N, longitude: 134-34-34W, elevation: 6 m

Current weather observation

The report was made 21 minutes ago, at 07:53 UTC
Calm wind
Temperature 1°C
Humidity 86%
Pressure 1016 hPa
Visibility: 16.1 km
Few clouds at a height of 11000 ft

METAR: PAJN 200753Z 00000KT 10SM FEW110 01/M01 A3000 RMK AO2 SLP160 T00061006

Time: 00:14 (08:14 UTC)

Forecast

The report was made 2 hours and 54 minutes ago, at 05:20 UTC
Forecast valid from 20 at 06 UTC to 21 at 06 UTC
Wind 3 kt from variable directions
Visibility: 10 km
Clear sky
From 20 at 2000 UTC
Wind 6 kt from the West/Southwest
Visibility: 10 km
Scattered clouds at a height of 15000 ft
From 21 at 0200 UTC
Wind 3 kt from variable directions
Visibility: 10 km
Broken clouds at a height of 8000 ft
Overcast at a height of 10000 ft

TAF: PAJN 200520Z 2006/2106 VRB03KT P6SM SKC FM202000 25006KT P6SM SCT150 FM210200 VRB03KT P6SM BKN080 OVC100

Weather observations and forecasts of more than 4000 airports (METAR and TAF reports).

The available stations are represented by yellow and red dots on the map.

Hover mouse over dot to see the name of the station.

Then click to see weather observations and forecasts.

To change the map : click on the green buttons with a black cross to zoom in, on the green button with a dash to zoom out, or on the green arrows for adjacent maps.


METAR-TAF: